Time;durP1;ratioP1;P1;durP2;ratioP2;P2;SDS_P1;SDS_P2;PMS_P1;PMS_P2;Temp;Humidity;BMP_temperature;BMP_pressure;BME280_temperature;BME280_humidity;BME280_pressure;Samples;Min_cycle;Max_cycle;Signal;HPM_P1;HPM_P2
2021/05/12 00:01:34;;;;;;;6.70;6.10;;;18.90;99.90;;;;;;5114941;27;20468;-64
2021/05/12 00:04:00;;;;;;;6.87;6.27;;;18.90;99.90;;;;;;5114364;27;20477;-63
2021/05/12 00:06:27;;;;;;;7.60;6.90;;;18.90;99.90;;;;;;5114645;28;20464;-63
2021/05/12 00:08:53;;;;;;;5.90;5.40;;;18.90;99.90;;;;;;5114333;27;20464;-64
2021/05/12 00:11:19;;;;;;;6.20;5.70;;;18.80;99.90;;;;;;5114590;28;20469;-64
2021/05/12 00:13:46;;;;;;;7.07;6.37;;;18.80;99.90;;;;;;5113911;27;20467;-64
2021/05/12 00:16:13;;;;;;;6.27;5.87;;;18.80;99.90;;;;;;5108022;28;20956;-64
2021/05/12 00:18:42;;;;;;;5.90;5.30;;;18.80;99.90;;;;;;5113597;28;20469;-63
2021/05/12 00:21:12;;;;;;;6.50;5.30;;;18.80;99.90;;;;;;5114189;28;20475;-62
2021/05/12 00:23:44;;;;;;;5.10;4.60;;;18.80;99.90;;;;;;5114032;27;20878;-63
2021/05/12 00:26:11;;;;;;;4.87;4.50;;;18.70;99.90;;;;;;5114227;28;20478;-63
2021/05/12 00:28:37;;;;;;;6.00;5.60;;;18.70;99.90;;;;;;5113589;28;20468;-63
2021/05/12 00:31:04;;;;;;;6.87;6.37;;;18.70;99.90;;;;;;5114354;28;20460;-64
2021/05/12 00:33:31;;;;;;;8.60;7.80;;;18.70;99.90;;;;;;5113247;28;20977;-63
2021/05/12 00:36:04;;;;;;;7.67;6.97;;;18.70;99.90;;;;;;5113689;28;20452;-64
2021/05/12 00:38:30;;;;;;;11.83;10.80;;;18.60;99.90;;;;;;5113164;27;21095;-64
2021/05/12 00:40:56;;;;;;;9.93;8.80;;;18.60;99.90;;;;;;5113294;27;20533;-64
2021/05/12 00:43:23;;;;;;;12.60;11.33;;;18.60;99.90;;;;;;5114120;27;20465;-63
2021/05/12 00:45:50;;;;;;;10.27;9.27;;;18.50;99.90;;;;;;5113801;27;20475;-63
2021/05/12 00:48:17;;;;;;;8.87;8.07;;;18.50;99.90;;;;;;5111366;27;20923;-63
2021/05/12 00:50:44;;;;;;;15.30;13.70;;;18.50;99.90;;;;;;5093439;28;20466;-63
2021/05/12 00:53:11;;;;;;;21.53;18.73;;;18.50;99.90;;;;;;5093460;28;20472;-63
2021/05/12 00:55:37;;;;;;;18.60;16.57;;;18.50;99.90;;;;;;5093478;28;20465;-63
2021/05/12 00:58:04;;;;;;;11.37;10.27;;;18.50;99.90;;;;;;5093001;28;20471;-64
2021/05/12 01:00:30;;;;;;;13.13;11.83;;;18.40;99.90;;;;;;5093270;28;20993;-64
2021/05/12 01:02:57;;;;;;;18.63;16.63;;;18.40;99.90;;;;;;5096812;27;20464;-64
2021/05/12 01:05:26;;;;;;;13.13;11.87;;;18.40;99.90;;;;;;5113947;27;20460;-63
2021/05/12 01:07:54;;;;;;;11.37;8.27;;;18.40;99.90;;;;;;5113057;27;20468;-64
2021/05/12 01:10:21;;;;;;;8.90;8.00;;;18.40;99.90;;;;;;5113653;27;20461;-64
2021/05/12 01:12:48;;;;;;;11.63;10.50;;;18.30;99.90;;;;;;5113162;27;20469;-63
2021/05/12 01:15:14;;;;;;;9.93;9.00;;;18.30;99.90;;;;;;5113405;27;21024;-63
2021/05/12 01:17:41;;;;;;;7.90;7.20;;;18.20;99.90;;;;;;5112869;27;20464;-62
2021/05/12 01:20:09;;;;;;;7.00;6.23;;;18.20;99.90;;;;;;5113459;27;20468;-63
2021/05/12 01:22:37;;;;;;;11.57;10.57;;;18.20;99.90;;;;;;5113337;27;20465;-64
2021/05/12 01:25:04;;;;;;;10.97;9.90;;;18.20;99.90;;;;;;5112958;27;20460;-64
2021/05/12 01:27:30;;;;;;;9.63;8.63;;;18.10;99.90;;;;;;5113247;27;20468;-64
2021/05/12 01:29:57;;;;;;;7.70;7.00;;;18.10;99.90;;;;;;5112840;27;20967;-64
2021/05/12 01:32:25;;;;;;;10.40;7.67;;;18.00;99.90;;;;;;5113264;27;20784;-64
2021/05/12 01:34:52;;;;;;;8.27;7.47;;;18.00;99.90;;;;;;5112990;27;20460;-64
2021/05/12 01:37:18;;;;;;;8.57;7.77;;;18.00;99.90;;;;;;5113179;27;20472;-63
2021/05/12 01:39:46;;;;;;;8.83;8.07;;;18.00;99.90;;;;;;5112882;27;20460;-64
2021/05/12 01:42:12;;;;;;;6.97;6.27;;;17.90;99.90;;;;;;5113197;27;20968;-64
2021/05/12 01:44:38;;;;;;;8.37;6.17;;;17.90;99.90;;;;;;5112942;27;20494;-63
2021/05/12 01:47:05;;;;;;;5.83;5.33;;;17.90;99.90;;;;;;5112692;27;20452;-64
2021/05/12 01:49:32;;;;;;;7.40;6.57;;;17.90;99.90;;;;;;5113065;27;20954;-63
2021/05/12 01:51:59;;;;;;;7.50;6.80;;;17.90;99.90;;;;;;5112461;27;20464;-63
2021/05/12 01:54:25;;;;;;;8.77;7.20;;;17.80;99.90;;;;;;5113506;27;20464;-64
2021/05/12 01:56:52;;;;;;;7.57;6.97;;;17.80;99.90;;;;;;5112518;27;20472;-64
2021/05/12 01:59:20;;;;;;;7.70;5.97;;;17.80;99.90;;;;;;5112838;27;20954;-64
2021/05/12 02:01:46;;;;;;;7.00;6.50;;;17.80;99.90;;;;;;5112676;27;21010;-63
2021/05/12 02:04:13;;;;;;;6.67;5.93;;;17.80;99.90;;;;;;5112927;28;20467;-64
2021/05/12 02:06:39;;;;;;;6.60;6.00;;;17.80;99.90;;;;;;5112984;28;20959;-64
2021/05/12 02:09:07;;;;;;;7.10;6.50;;;17.80;99.90;;;;;;5112471;28;20546;-64
2021/05/12 02:11:39;;;;;;;7.20;6.60;;;17.70;99.90;;;;;;5112784;28;20502;-63
2021/05/12 02:14:07;;;;;;;5.70;5.10;;;17.70;99.90;;;;;;5112624;28;20452;-63
2021/05/12 02:16:34;;;;;;;5.03;4.63;;;17.70;99.90;;;;;;5112887;28;20600;-63
2021/05/12 02:19:00;;;;;;;6.33;5.77;;;17.70;99.90;;;;;;5112454;28;20463;-63
2021/05/12 02:21:27;;;;;;;5.73;5.33;;;17.70;99.90;;;;;;5112896;28;20460;-63
2021/05/12 02:23:53;;;;;;;6.93;6.33;;;17.70;99.90;;;;;;5112444;28;20465;-63
2021/05/12 02:26:19;;;;;;;6.10;5.50;;;17.60;99.90;;;;;;5112732;28;20463;-62
2021/05/12 02:28:46;;;;;;;6.40;5.90;;;17.60;99.90;;;;;;5112328;28;20541;-63
2021/05/12 02:31:13;;;;;;;6.60;6.00;;;17.60;99.90;;;;;;5112616;28;20453;-63
2021/05/12 02:33:40;;;;;;;5.40;4.90;;;17.50;99.90;;;;;;5112469;27;20461;-63
2021/05/12 02:36:06;;;;;;;7.70;6.43;;;17.50;99.90;;;;;;5112312;27;22009;-63
2021/05/12 02:38:33;;;;;;;6.40;5.90;;;17.50;99.90;;;;;;5112642;27;20974;-63
2021/05/12 02:40:59;;;;;;;6.37;5.60;;;17.50;99.90;;;;;;5112158;27;20942;-64
2021/05/12 02:43:26;;;;;;;9.90;6.03;;;17.50;99.90;;;;;;5112698;27;20958;-63
2021/05/12 02:45:52;;;;;;;7.63;6.57;;;17.50;99.90;;;;;;5112166;27;20460;-63
2021/05/12 02:48:19;;;;;;;6.53;5.93;;;17.50;99.90;;;;;;5112444;27;20464;-64
2021/05/12 02:50:47;;;;;;;5.50;5.10;;;17.40;99.90;;;;;;5112744;27;20802;-63
2021/05/12 02:53:14;;;;;;;6.07;5.47;;;17.40;99.90;;;;;;5112168;27;20460;-63
2021/05/12 02:55:40;;;;;;;5.13;4.80;;;17.40;99.90;;;;;;5112686;27;20537;-64
2021/05/12 02:58:08;;;;;;;7.03;6.37;;;17.40;99.90;;;;;;5114523;27;20491;-64
2021/05/12 03:00:37;;;;;;;5.77;5.37;;;17.40;99.90;;;;;;5116054;27;20543;-64
2021/05/12 03:03:04;;;;;;;4.93;4.43;;;17.30;99.90;;;;;;5115888;27;20500;-64
2021/05/12 03:05:32;;;;;;;6.23;5.63;;;17.40;99.90;;;;;;5116179;27;20465;-64
2021/05/12 03:07:59;;;;;;;5.60;5.20;;;17.30;99.90;;;;;;5115402;27;20475;-63
2021/05/12 03:10:26;;;;;;;4.30;3.97;;;17.30;99.90;;;;;;5116112;27;20485;-64
2021/05/12 03:12:53;;;;;;;5.27;4.80;;;17.30;99.90;;;;;;5115472;27;20807;-64
2021/05/12 03:15:22;;;;;;;8.30;4.93;;;17.20;99.90;;;;;;5115931;27;20464;-64
2021/05/12 03:17:49;;;;;;;5.20;4.80;;;17.20;99.90;;;;;;5115944;27;20997;-65
2021/05/12 03:20:16;;;;;;;7.80;5.33;;;17.20;99.90;;;;;;5115320;27;20521;-63
2021/05/12 03:22:44;;;;;;;5.90;5.20;;;17.20;99.90;;;;;;5115838;27;20479;-63
2021/05/12 03:25:11;;;;;;;6.47;4.93;;;17.20;99.90;;;;;;5115367;27;20541;-64
2021/05/12 03:27:38;;;;;;;4.97;4.63;;;17.20;99.90;;;;;;5115583;27;20483;-64
2021/05/12 03:30:07;;;;;;;5.27;4.80;;;17.10;99.90;;;;;;5115032;27;20472;-64
2021/05/12 03:32:33;;;;;;;4.33;4.00;;;17.10;99.90;;;;;;5115485;27;20988;-64
2021/05/12 03:35:00;;;;;;;4.87;4.40;;;17.10;99.90;;;;;;5115179;27;20468;-64
2021/05/12 03:37:26;;;;;;;4.30;3.90;;;17.10;99.90;;;;;;5115499;27;20465;-64
2021/05/12 03:39:54;;;;;;;5.33;4.30;;;17.10;99.90;;;;;;5115189;27;20472;-64
2021/05/12 03:42:20;;;;;;;7.50;5.30;;;17.10;99.90;;;;;;5115370;28;20533;-63
2021/05/12 03:44:47;;;;;;;5.67;3.57;;;17.10;99.90;;;;;;5115471;28;20459;-64
2021/05/12 03:47:13;;;;;;;4.10;3.60;;;17.10;99.90;;;;;;5114529;28;20473;-64
2021/05/12 03:49:40;;;;;;;6.63;4.33;;;17.10;99.90;;;;;;5115160;27;20483;-64
2021/05/12 03:52:06;;;;;;;4.60;4.17;;;17.00;99.90;;;;;;5114796;27;20775;-64
2021/05/12 03:54:33;;;;;;;5.47;4.50;;;17.00;99.90;;;;;;5115132;27;20448;-64
2021/05/12 03:57:00;;;;;;;7.40;3.90;;;17.00;99.90;;;;;;5114539;27;20472;-64
2021/05/12 03:59:27;;;;;;;3.67;3.07;;;17.00;99.90;;;;;;5115166;27;20802;-64
2021/05/12 04:01:53;;;;;;;5.67;3.67;;;17.10;99.90;;;;;;5114827;27;20568;-64
2021/05/12 04:04:20;;;;;;;7.87;3.73;;;17.00;99.90;;;;;;5114741;27;20448;-64
2021/05/12 04:06:48;;;;;;;4.03;3.73;;;17.00;99.90;;;;;;5115181;27;20488;-63
2021/05/12 04:09:15;;;;;;;3.70;3.30;;;17.00;99.90;;;;;;5114558;27;20472;-64
2021/05/12 04:11:44;;;;;;;6.77;3.80;;;17.00;99.90;;;;;;5114980;27;20988;-64
2021/05/12 04:14:12;;;;;;;3.87;3.30;;;17.00;99.90;;;;;;5114704;27;20472;-64
2021/05/12 04:16:38;;;;;;;3.93;3.47;;;17.00;99.90;;;;;;5114772;27;20810;-64
2021/05/12 04:19:05;;;;;;;4.00;3.43;;;17.00;99.90;;;;;;5114512;27;20467;-63
2021/05/12 04:21:32;;;;;;;4.67;4.00;;;17.00;99.90;;;;;;5114790;27;20468;-64
2021/05/12 04:23:58;;;;;;;4.23;3.27;;;17.00;99.90;;;;;;5114352;27;20806;-64
2021/05/12 04:26:25;;;;;;;3.80;3.50;;;17.00;99.90;;;;;;5114720;27;20464;-64
2021/05/12 04:28:51;;;;;;;7.60;3.30;;;17.00;99.90;;;;;;5114639;27;20969;-64
2021/05/12 04:31:18;;;;;;;5.60;4.03;;;17.10;99.90;;;;;;5114032;27;20464;-64
2021/05/12 04:33:45;;;;;;;6.87;3.43;;;17.10;99.90;;;;;;5114501;27;20525;-63
2021/05/12 04:36:12;;;;;;;4.13;3.60;;;17.10;99.90;;;;;;5114068;27;20467;-64
2021/05/12 04:38:38;;;;;;;8.27;3.80;;;17.10;99.90;;;;;;5114342;27;20468;-63
2021/05/12 04:41:08;;;;;;;4.83;4.43;;;17.10;99.90;;;;;;5114150;27;21001;-63
2021/05/12 04:43:34;;;;;;;4.10;3.57;;;17.10;99.90;;;;;;5114259;27;20521;-64
2021/05/12 04:46:02;;;;;;;4.20;3.50;;;17.10;99.90;;;;;;5113954;27;20856;-63
2021/05/12 04:48:29;;;;;;;4.30;3.70;;;17.10;99.90;;;;;;5113997;27;20467;-63
2021/05/12 04:50:56;;;;;;;6.87;3.23;;;17.10;99.90;;;;;;5114250;27;20825;-63
2021/05/12 04:53:22;;;;;;;4.67;4.27;;;17.10;99.90;;;;;;5113621;27;20472;-63
2021/05/12 04:55:48;;;;;;;4.63;3.50;;;17.10;99.90;;;;;;5114106;27;20471;-63
2021/05/12 04:58:15;;;;;;;4.57;3.73;;;17.10;99.90;;;;;;5113521;27;20480;-63
2021/05/12 05:00:41;;;;;;;4.57;4.17;;;17.10;99.90;;;;;;5113913;27;20475;-64
2021/05/12 05:03:08;;;;;;;4.30;3.83;;;17.10;99.90;;;;;;5113427;27;21046;-64
2021/05/12 05:05:36;;;;;;;4.20;3.80;;;17.10;99.90;;;;;;5113879;27;20951;-64
2021/05/12 05:08:02;;;;;;;6.40;4.73;;;17.10;99.90;;;;;;5113484;27;20465;-63
2021/05/12 05:10:29;;;;;;;3.57;3.27;;;17.10;99.90;;;;;;5113736;27;20476;-63
2021/05/12 05:12:55;;;;;;;3.53;3.17;;;17.10;99.90;;;;;;5113767;27;20803;-64
2021/05/12 05:15:23;;;;;;;4.47;4.03;;;17.10;99.90;;;;;;5113247;27;20463;-64
2021/05/12 05:17:50;;;;;;;4.07;3.60;;;17.10;99.90;;;;;;5104295;27;20492;-63
2021/05/12 05:20:17;;;;;;;4.43;4.10;;;17.10;99.90;;;;;;5110527;27;20522;-63
2021/05/12 05:22:44;;;;;;;4.10;3.77;;;17.10;99.90;;;;;;5113561;27;20464;-63
2021/05/12 05:25:12;;;;;;;4.17;3.80;;;17.10;99.90;;;;;;5102887;27;20469;-64
2021/05/12 05:27:38;;;;;;;5.60;3.53;;;17.10;99.90;;;;;;5092823;28;20465;-64
2021/05/12 05:30:06;;;;;;;4.93;4.37;;;17.10;99.90;;;;;;5092158;28;20750;-64
2021/05/12 05:32:32;;;;;;;8.00;7.10;;;17.10;99.90;;;;;;5093908;28;20461;-63
2021/05/12 05:34:59;;;;;;;7.67;6.40;;;17.10;99.90;;;;;;5092996;28;20593;-63
2021/05/12 05:37:25;;;;;;;6.73;5.47;;;17.10;99.90;;;;;;5092564;28;20484;-64
2021/05/12 05:39:53;;;;;;;7.20;5.90;;;17.10;99.90;;;;;;5092846;28;20971;-64
2021/05/12 05:42:20;;;;;;;5.63;5.03;;;17.10;99.90;;;;;;5092303;28;20523;-64
2021/05/12 05:44:48;;;;;;;3.67;3.37;;;17.10;99.90;;;;;;5093035;28;20465;-64
2021/05/12 05:47:14;;;;;;;4.70;3.13;;;17.10;99.90;;;;;;5093930;27;20489;-64
2021/05/12 05:49:41;;;;;;;4.47;3.97;;;17.10;99.90;;;;;;5112878;27;20472;-64
2021/05/12 05:52:07;;;;;;;4.87;3.77;;;17.10;99.90;;;;;;5112622;27;20529;-64
2021/05/12 05:54:34;;;;;;;4.67;4.27;;;17.10;99.90;;;;;;5113169;27;20456;-63
2021/05/12 05:57:05;;;;;;;5.47;4.33;;;17.10;99.90;;;;;;5112965;27;20469;-63
2021/05/12 05:59:32;;;;;;;4.47;4.17;;;17.10;99.90;;;;;;5112472;27;20468;-64
2021/05/12 06:01:58;;;;;;;6.70;6.00;;;17.10;99.90;;;;;;5112799;27;20457;-63
2021/05/12 06:04:25;;;;;;;6.40;5.80;;;17.10;99.90;;;;;;5111912;27;20474;-64
2021/05/12 06:06:54;;;;;;;6.63;6.00;;;17.10;99.90;;;;;;5112493;27;20471;-64
2021/05/12 06:09:20;;;;;;;5.33;4.83;;;17.10;99.90;;;;;;5112284;27;20488;-64
2021/05/12 06:11:47;;;;;;;5.63;5.23;;;17.10;99.90;;;;;;5113107;27;20467;-64
2021/05/12 06:14:14;;;;;;;8.17;7.40;;;17.10;99.90;;;;;;5111356;27;20468;-64
2021/05/12 06:16:41;;;;;;;7.80;6.97;;;17.10;99.90;;;;;;5110814;27;20464;-63
2021/05/12 06:19:07;;;;;;;8.70;7.90;;;17.10;99.90;;;;;;5111050;27;20460;-63
2021/05/12 06:21:34;;;;;;;6.80;6.07;;;17.10;99.90;;;;;;5111116;27;21533;-63
2021/05/12 06:24:00;;;;;;;8.67;7.77;;;17.10;99.90;;;;;;5111327;27;20501;-63
2021/05/12 06:26:26;;;;;;;5.20;4.70;;;17.20;99.90;;;;;;5110728;27;20464;-63
2021/05/12 06:28:53;;;;;;;9.17;8.20;;;17.20;99.90;;;;;;5112202;27;20817;-63
2021/05/12 06:31:20;;;;;;;7.83;6.33;;;17.20;99.90;;;;;;5112159;27;20464;-64
2021/05/12 06:33:47;;;;;;;6.20;5.63;;;17.20;99.90;;;;;;5116313;27;20511;-64
2021/05/12 06:36:15;;;;;;;6.60;4.80;;;17.20;99.90;;;;;;5116166;27;20464;-63
2021/05/12 06:38:42;;;;;;;6.43;4.70;;;17.20;99.90;;;;;;5116825;27;20464;-64
2021/05/12 06:41:08;;;;;;;10.13;9.07;;;17.20;99.90;;;;;;5116702;27;20478;-64
2021/05/12 06:43:35;;;;;;;9.53;8.63;;;17.30;99.90;;;;;;5116200;27;20969;-63
2021/05/12 06:46:01;;;;;;;8.60;7.73;;;17.30;99.90;;;;;;5116740;27;20525;-63
2021/05/12 06:48:29;;;;;;;7.00;6.30;;;17.30;99.90;;;;;;5115866;27;20487;-64
2021/05/12 06:50:55;;;;;;;8.30;6.03;;;17.30;99.90;;;;;;5116549;27;20978;-63
2021/05/12 06:53:29;;;;;;;5.73;5.23;;;17.30;99.90;;;;;;5116165;27;20487;-63
2021/05/12 06:55:55;;;;;;;6.33;5.77;;;17.40;99.90;;;;;;5116352;27;20475;-64
2021/05/12 06:58:22;;;;;;;6.13;5.50;;;17.40;99.90;;;;;;5115813;27;20468;-64
2021/05/12 07:00:50;;;;;;;5.30;4.80;;;17.40;99.90;;;;;;5116150;27;20469;-64
2021/05/12 07:03:17;;;;;;;7.50;6.80;;;17.40;99.90;;;;;;5115707;27;20472;-64
2021/05/12 07:05:44;;;;;;;7.00;6.40;;;17.40;99.90;;;;;;5116325;27;20471;-64
2021/05/12 07:08:11;;;;;;;6.20;5.70;;;17.40;99.90;;;;;;5116366;27;20544;-64
2021/05/12 07:10:38;;;;;;;5.90;5.30;;;17.30;99.90;;;;;;5115701;27;20457;-63
2021/05/12 07:13:04;;;;;;;6.13;5.57;;;17.30;99.90;;;;;;5116015;27;20522;-63
2021/05/12 07:15:31;;;;;;;7.40;6.50;;;17.30;99.90;;;;;;5115592;27;20464;-64
2021/05/12 07:17:57;;;;;;;10.33;7.80;;;17.30;99.90;;;;;;5115947;27;20827;-64
2021/05/12 07:20:24;;;;;;;8.50;7.50;;;17.30;99.90;;;;;;5115501;28;20468;-63
2021/05/12 07:22:51;;;;;;;10.43;9.50;;;17.30;99.90;;;;;;5115856;28;20467;-64
2021/05/12 07:25:18;;;;;;;10.43;7.10;;;17.30;99.90;;;;;;5115490;27;20802;-63
2021/05/12 07:27:45;;;;;;;8.30;6.97;;;17.30;99.90;;;;;;5115827;27;20460;-63
2021/05/12 07:30:12;;;;;;;8.10;7.00;;;17.30;99.90;;;;;;5115713;28;20464;-64
2021/05/12 07:32:38;;;;;;;7.57;6.77;;;17.30;99.90;;;;;;5114901;28;20780;-64
2021/05/12 07:35:07;;;;;;;7.00;6.40;;;17.30;99.90;;;;;;5115903;27;20461;-64
2021/05/12 07:37:33;;;;;;;7.17;6.27;;;17.30;99.90;;;;;;5115066;27;20457;-64
2021/05/12 07:40:01;;;;;;;7.77;6.60;;;17.30;99.90;;;;;;5115665;27;20465;-63
2021/05/12 07:42:27;;;;;;;7.10;6.50;;;17.30;99.90;;;;;;5114800;27;20496;-63
2021/05/12 07:44:53;;;;;;;8.63;7.53;;;17.30;99.90;;;;;;5115350;27;20464;-63
2021/05/12 07:47:20;;;;;;;7.70;6.93;;;17.30;99.90;;;;;;5114724;27;20468;-63
2021/05/12 07:49:46;;;;;;;8.53;7.83;;;17.30;99.90;;;;;;5115421;27;20467;-63
2021/05/12 07:52:14;;;;;;;7.20;6.33;;;17.30;99.90;;;;;;5115264;27;20468;-64
2021/05/12 07:54:41;;;;;;;7.60;6.80;;;17.40;99.90;;;;;;5115110;27;20463;-63
2021/05/12 07:57:09;;;;;;;8.10;7.30;;;17.40;99.90;;;;;;5115081;27;20464;-64
2021/05/12 07:59:36;;;;;;;9.53;8.57;;;17.40;99.90;;;;;;5114542;27;20481;-64
2021/05/12 08:02:04;;;;;;;10.53;9.43;;;17.40;99.90;;;;;;5115271;27;20460;-64
2021/05/12 08:04:31;;;;;;;10.77;9.67;;;17.40;99.90;;;;;;5114573;27;20521;-64
2021/05/12 08:06:57;;;;;;;11.53;10.43;;;17.40;99.90;;;;;;5114765;27;20468;-64
2021/05/12 08:09:24;;;;;;;11.60;10.27;;;17.40;99.90;;;;;;5114669;27;20467;-64
2021/05/12 08:11:50;;;;;;;10.13;9.03;;;17.40;99.90;;;;;;5114918;27;21007;-64
2021/05/12 08:14:18;;;;;;;12.13;10.80;;;17.40;99.90;;;;;;5114698;27;20597;-64
2021/05/12 08:16:45;;;;;;;10.60;9.60;;;17.40;99.90;;;;;;5114557;27;20545;-64
2021/05/12 08:19:12;;;;;;;10.73;9.63;;;17.40;99.90;;;;;;5114804;27;20464;-63
2021/05/12 08:21:38;;;;;;;14.30;11.67;;;17.40;99.90;;;;;;5114443;27;20464;-64
2021/05/12 08:24:05;;;;;;;12.67;10.47;;;17.50;99.90;;;;;;5114866;27;20468;-63
2021/05/12 08:26:32;;;;;;;13.27;10.90;;;17.50;99.90;;;;;;5113932;27;20543;-63
2021/05/12 08:28:59;;;;;;;14.20;11.80;;;17.50;99.90;;;;;;5114751;27;20469;-64
2021/05/12 08:31:27;;;;;;;10.93;9.90;;;17.60;99.90;;;;;;5113935;27;21036;-64
2021/05/12 08:33:53;;;;;;;11.83;10.50;;;17.60;99.90;;;;;;5114487;27;20629;-64
2021/05/12 08:36:20;;;;;;;11.70;10.50;;;17.60;99.90;;;;;;5114509;27;20460;-63
2021/05/12 08:38:46;;;;;;;14.73;12.33;;;17.60;99.90;;;;;;5113939;27;20483;-64
2021/05/12 08:41:14;;;;;;;13.40;12.10;;;17.60;99.90;;;;;;5114330;27;20598;-64
2021/05/12 08:43:41;;;;;;;13.40;12.00;;;17.60;99.90;;;;;;5114034;27;20467;-64
2021/05/12 08:46:08;;;;;;;12.70;11.47;;;17.60;99.90;;;;;;5113972;27;20917;-63
2021/05/12 08:48:38;;;;;;;15.40;12.70;;;17.60;99.90;;;;;;5113442;27;20469;-62
2021/05/12 08:51:05;;;;;;;13.23;12.03;;;17.70;99.90;;;;;;5114166;27;20483;-63
2021/05/12 08:53:32;;;;;;;14.30;12.80;;;17.70;99.90;;;;;;5113565;27;20472;-64
2021/05/12 08:55:59;;;;;;;15.00;12.70;;;17.70;99.90;;;;;;5113228;27;20799;-64
2021/05/12 08:58:26;;;;;;;15.20;13.23;;;17.70;99.90;;;;;;5113545;28;20479;-63
2021/05/12 09:00:53;;;;;;;14.30;12.73;;;17.70;99.90;;;;;;5116021;27;20468;-63
2021/05/12 09:03:20;;;;;;;13.77;12.37;;;17.70;99.90;;;;;;5117702;27;20464;-63
2021/05/12 09:05:48;;;;;;;16.93;13.20;;;17.70;99.90;;;;;;5113670;28;20845;-63
2021/05/12 09:08:15;;;;;;;16.80;13.37;;;17.70;99.90;;;;;;5113606;27;20468;-63
2021/05/12 09:10:41;;;;;;;16.23;14.37;;;17.60;99.90;;;;;;5113378;27;20461;-63
2021/05/12 09:13:08;;;;;;;13.43;12.03;;;17.70;99.90;;;;;;5113726;28;20468;-63
2021/05/12 09:15:35;;;;;;;15.93;14.33;;;17.70;99.90;;;;;;5113188;28;20464;-63
2021/05/12 09:18:03;;;;;;;15.93;14.37;;;17.70;99.90;;;;;;5113727;28;20840;-63
2021/05/12 09:20:33;;;;;;;16.93;15.20;;;17.70;99.90;;;;;;5113200;27;20479;-62
2021/05/12 09:23:10;;;;;;;15.40;12.87;;;17.70;99.90;;;;;;5113496;28;20471;-62
2021/05/12 09:25:40;;;;;;;13.90;12.20;;;17.70;99.90;;;;;;5113033;28;20804;-63
2021/05/12 09:28:13;;;;;;;16.23;14.63;;;17.70;99.90;;;;;;5113494;28;20492;-63
2021/05/12 09:30:40;;;;;;;17.00;15.20;;;17.80;99.90;;;;;;5113081;28;20619;-63
2021/05/12 09:33:08;;;;;;;15.90;13.53;;;17.70;99.90;;;;;;5113087;27;20468;-64
2021/05/12 09:35:41;;;;;;;18.90;13.80;;;17.70;99.90;;;;;;5113091;27;20851;-64
2021/05/12 09:38:21;;;;;;;15.20;13.60;;;17.80;99.90;;;;;;5113429;27;20479;-64
2021/05/12 09:41:00;;;;;;;15.77;12.50;;;17.80;99.90;;;;;;5112748;27;20517;-63
2021/05/12 09:43:28;;;;;;;16.77;13.23;;;17.80;99.90;;;;;;5112821;27;20471;-64
2021/05/12 09:46:14;;;;;;;17.03;13.33;;;17.80;99.90;;;;;;5113140;27;20962;-63
2021/05/12 09:48:41;;;;;;;18.00;14.50;;;17.80;99.90;;;;;;5112560;27;21004;-64
2021/05/12 09:51:16;;;;;;;18.07;15.70;;;17.80;99.90;;;;;;5113346;27;20464;-64
2021/05/12 09:54:05;;;;;;;18.50;14.37;;;17.80;99.90;;;;;;5112646;27;20533;-63
2021/05/12 09:56:47;;;;;;;14.50;13.00;;;17.80;99.90;;;;;;5112532;27;20972;-63
2021/05/12 09:59:16;;;;;;;15.43;13.07;;;17.80;99.90;;;;;;5113200;27;20464;-63
2021/05/12 10:01:51;;;;;;;17.33;15.30;;;17.80;99.90;;;;;;5112278;27;20469;-63
2021/05/12 10:04:39;;;;;;;20.20;15.53;;;17.90;99.90;;;;;;5113151;27;20488;-64
2021/05/12 10:07:18;;;;;;;17.90;14.20;;;17.80;99.90;;;;;;5118170;27;20460;-64
2021/05/12 10:09:48;;;;;;;15.43;13.83;;;17.80;99.90;;;;;;5120487;27;20460;-64
2021/05/12 10:12:19;;;;;;;19.30;15.07;;;17.90;99.90;;;;;;5119388;27;20528;-64
2021/05/12 10:14:48;;;;;;;16.90;15.10;;;17.90;99.90;;;;;;5119673;27;20486;-63
2021/05/12 10:17:17;;;;;;;17.50;14.33;;;17.90;99.90;;;;;;5119488;27;21056;-64
2021/05/12 10:19:44;;;;;;;16.20;14.50;;;18.00;99.90;;;;;;5119570;27;20468;-63
2021/05/12 10:22:12;;;;;;;16.70;14.37;;;18.00;99.90;;;;;;5119200;27;20471;-63
2021/05/12 10:24:40;;;;;;;20.47;15.27;;;18.00;99.90;;;;;;5119662;27;20468;-63
2021/05/12 10:27:13;;;;;;;17.00;14.57;;;18.00;99.90;;;;;;5118938;27;20468;-64
2021/05/12 10:29:41;;;;;;;17.30;15.60;;;18.10;99.90;;;;;;5119580;27;20475;-64
2021/05/12 10:32:23;;;;;;;21.60;17.83;;;18.10;99.90;;;;;;5119009;27;20460;-64
2021/05/12 10:35:00;;;;;;;17.97;16.13;;;18.10;99.90;;;;;;5098997;28;20488;-64
2021/05/12 10:37:29;;;;;;;19.40;15.23;;;18.10;99.90;;;;;;5099397;27;20461;-64
2021/05/12 10:40:00;;;;;;;19.50;16.67;;;18.10;99.90;;;;;;5098840;28;20797;-64
2021/05/12 10:42:49;;;;;;;25.00;20.03;;;18.10;99.90;;;;;;5099088;28;20469;-63
2021/05/12 10:45:22;;;;;;;22.57;18.00;;;18.10;99.90;;;;;;5099064;27;20461;-64
2021/05/12 10:47:49;;;;;;;20.60;15.97;;;18.10;99.90;;;;;;5105359;27;20468;-64
2021/05/12 10:50:16;;;;;;;15.23;12.63;;;18.10;99.90;;;;;;5118754;27;20460;-64
2021/05/12 10:53:23;;;;;;;17.43;14.97;;;18.20;99.90;;;;;;5119224;27;20452;-64
2021/05/12 10:56:06;;;;;;;19.53;15.57;;;18.20;99.90;;;;;;5119623;27;20789;-64
2021/05/12 10:58:38;;;;;;;16.80;14.37;;;18.20;99.90;;;;;;5119631;27;20464;-62
2021/05/12 11:01:06;;;;;;;18.90;15.70;;;18.20;99.90;;;;;;5118879;27;20464;-63
2021/05/12 11:04:06;;;;;;;16.73;14.10;;;18.30;99.90;;;;;;5119130;27;20471;-63
2021/05/12 11:06:59;;;;;;;20.03;17.93;;;18.40;99.90;;;;;;5118862;27;20775;-64
2021/05/12 11:09:47;;;;;;;19.60;17.47;;;18.40;99.90;;;;;;5118609;27;20460;-64
2021/05/12 11:12:20;;;;;;;18.10;15.60;;;18.40;99.90;;;;;;5098408;28;20453;-64
2021/05/12 11:15:02;;;;;;;19.63;16.93;;;18.40;99.90;;;;;;5098474;28;20556;-64
2021/05/12 11:17:46;;;;;;;19.57;16.17;;;18.40;99.90;;;;;;5096721;27;20565;-64
2021/05/12 11:20:24;;;;;;;15.07;13.40;;;18.40;99.90;;;;;;5095379;28;20508;-63
2021/05/12 11:22:52;;;;;;;18.63;16.77;;;18.40;99.90;;;;;;5095237;28;20449;-64
2021/05/12 11:25:29;;;;;;;16.57;14.87;;;18.40;99.90;;;;;;5095270;28;20476;-63
2021/05/12 11:33:58;;;;;;;19.27;16.17;;;18.40;99.90;;;;;;5108674;27;20495;-63
2021/05/12 11:36:28;;;;;;;18.70;15.17;;;18.50;99.90;;;;;;5115503;27;20533;-63
2021/05/12 11:38:55;;;;;;;16.20;14.50;;;18.50;99.90;;;;;;5114960;27;21034;-63
2021/05/12 11:41:24;;;;;;;14.77;13.20;;;18.50;99.90;;;;;;5115395;27;20516;-64
2021/05/12 11:43:52;;;;;;;18.20;16.23;;;18.50;99.90;;;;;;5115195;27;20477;-64
2021/05/12 11:46:22;;;;;;;23.73;21.30;;;18.50;99.90;;;;;;5114951;27;20456;-64
2021/05/12 11:48:50;;;;;;;24.37;21.80;;;18.50;99.90;;;;;;5115221;27;20532;-64
2021/05/12 11:51:19;;;;;;;18.47;16.57;;;18.50;99.90;;;;;;5114598;27;20461;-64
2021/05/12 11:53:46;;;;;;;17.80;15.90;;;18.50;99.90;;;;;;5115145;27;20494;-63
2021/05/12 11:56:13;;;;;;;19.27;17.27;;;18.60;99.90;;;;;;5114740;27;20465;-64
2021/05/12 11:58:42;;;;;;;18.37;15.43;;;18.60;99.90;;;;;;5114913;27;20465;-64
2021/05/12 12:01:11;;;;;;;16.33;14.63;;;18.60;99.90;;;;;;5114524;27;20788;-64
2021/05/12 12:03:44;;;;;;;15.97;14.33;;;18.60;99.90;;;;;;5114918;27;20477;-64
2021/05/12 12:06:15;;;;;;;15.30;13.37;;;18.60;99.90;;;;;;5114592;27;20525;-64
2021/05/12 12:08:42;;;;;;;16.90;14.83;;;18.60;99.90;;;;;;5114871;27;20465;-64
2021/05/12 12:11:12;;;;;;;18.07;15.10;;;18.60;99.90;;;;;;5114541;27;20974;-63
2021/05/12 12:13:39;;;;;;;13.80;12.50;;;18.60;99.90;;;;;;5114610;28;20468;-64
2021/05/12 12:16:06;;;;;;;14.23;12.77;;;18.60;99.90;;;;;;5114237;28;20518;-64
2021/05/12 12:18:35;;;;;;;15.73;14.13;;;18.60;99.90;;;;;;5114637;28;20456;-63
2021/05/12 12:21:03;;;;;;;18.47;16.57;;;18.60;99.90;;;;;;5114057;28;20460;-63
2021/05/12 12:23:33;;;;;;;16.87;15.13;;;18.60;99.90;;;;;;5114649;28;20801;-64
2021/05/12 12:26:13;;;;;;;17.20;15.40;;;18.60;99.90;;;;;;5114184;28;20495;-63
2021/05/12 12:28:40;;;;;;;15.30;13.70;;;18.60;99.90;;;;;;5114325;28;20568;-63
2021/05/12 12:31:08;;;;;;;13.40;12.10;;;18.60;99.90;;;;;;5113021;27;20468;-63
2021/05/12 12:33:36;;;;;;;15.77;12.67;;;18.60;99.90;;;;;;5114109;27;20468;-63
2021/05/12 12:36:08;;;;;;;15.30;13.70;;;18.60;99.90;;;;;;5114142;27;20808;-63
2021/05/12 12:38:37;;;;;;;15.83;13.90;;;18.60;99.90;;;;;;5114236;27;20629;-64
2021/05/12 12:41:04;;;;;;;19.10;15.07;;;18.60;99.90;;;;;;5113713;27;20475;-63
2021/05/12 12:43:38;;;;;;;15.93;14.33;;;18.60;99.90;;;;;;5114332;27;20482;-63
2021/05/12 12:46:04;;;;;;;15.13;13.70;;;18.60;99.90;;;;;;5113889;27;20522;-64
2021/05/12 12:48:31;;;;;;;15.60;13.20;;;18.50;99.90;;;;;;5113831;27;20457;-64
2021/05/12 12:50:57;;;;;;;15.90;13.33;;;18.50;99.90;;;;;;5114117;27;20469;-64